Lublin, Poland
Current Conditions -  °F | °C
As of 4:30 PM on Saturday 22 Nov 2014 (Local Time) from EPLB Reporting Station
Drizzle Drizzle  
Wind Chill: 34°   Ceiling: 700
Heat Index: 34°   Visibility: 2.6mi
Dew Point: 34°   Wind: 3mph
Humidity: 100%   Direction: 340°NNW
Pressure: 30.36"   Gusts: NA
Location:  51.24°N, 22.57°E
Report Text: EPLB 221430Z 34003KT 310V010 4200 -DZ BR FEW005 OVC007 01/01 Q1028
Loading
Personal Weather Stations






























Interactive Weather Map New forecast layout! Learn more

10-Day Weather Forecast

Advertisements
Track Severe Weather on mobile